Time;durP1;ratioP1;P1;durP2;ratioP2;P2;SDS_P1;SDS_P2;PMS_P1;PMS_P2;Temp;Humidity;BMP_temperature;BMP_pressure;BME280_temperature;BME280_humidity;BME280_pressure;Samples;Min_cycle;Max_cycle;Signal;HPM_P1;HPM_P2
2022/07/22 00:01:19;;;;;;;16.98;3.63;;;15.80;99.90;;;;;;5066822;28;20172;-79
2022/07/22 00:03:46;;;;;;;14.98;3.50;;;15.80;99.90;;;;;;5013798;28;20057;-80
2022/07/22 00:06:12;;;;;;;10.60;3.53;;;15.80;99.90;;;;;;5011751;28;20030;-80
2022/07/22 00:08:37;;;;;;;11.38;3.50;;;15.80;99.90;;;;;;4996906;28;20040;-80
2022/07/22 00:11:04;;;;;;;14.02;3.28;;;15.80;99.90;;;;;;5029520;28;20033;-80
2022/07/22 00:13:31;;;;;;;12.65;3.42;;;15.80;99.90;;;;;;5007553;28;20041;-78
2022/07/22 00:15:57;;;;;;;14.07;3.10;;;15.80;99.90;;;;;;4996525;28;20227;-79
2022/07/22 00:18:23;;;;;;;11.55;3.25;;;15.80;99.90;;;;;;5025462;28;20151;-78
2022/07/22 00:20:49;;;;;;;12.30;3.55;;;15.80;99.90;;;;;;5008779;28;20033;-78
2022/07/22 00:23:15;;;;;;;13.00;3.65;;;15.80;99.90;;;;;;5025380;28;20108;-78
2022/07/22 00:25:41;;;;;;;13.57;3.13;;;15.80;99.90;;;;;;5031717;28;20212;-80
2022/07/22 00:28:06;;;;;;;11.85;3.38;;;15.80;99.90;;;;;;5011613;28;20080;-79
2022/07/22 00:30:32;;;;;;;15.73;3.42;;;15.80;99.90;;;;;;5028091;28;20045;-79
2022/07/22 00:32:58;;;;;;;12.93;3.22;;;15.90;99.90;;;;;;5012377;28;20034;-79
2022/07/22 00:35:24;;;;;;;15.77;3.55;;;15.90;99.90;;;;;;5009365;28;20117;-80
2022/07/22 00:37:50;;;;;;;12.52;3.25;;;15.90;99.90;;;;;;4993470;28;20072;-80
2022/07/22 00:40:16;;;;;;;13.60;3.58;;;15.90;99.90;;;;;;5025559;28;20057;-78
2022/07/22 00:42:42;;;;;;;10.23;3.38;;;15.90;99.90;;;;;;5010213;28;20084;-79
2022/07/22 00:45:08;;;;;;;13.55;3.38;;;15.90;99.90;;;;;;5024461;28;21372;-80
2022/07/22 00:47:35;;;;;;;13.63;3.22;;;15.40;99.90;;;;;;5015148;28;20100;-79
2022/07/22 00:50:01;;;;;;;10.35;2.88;;;15.90;99.90;;;;;;4997764;28;20041;-79
2022/07/22 00:52:28;;;;;;;10.77;3.00;;;16.00;99.90;;;;;;5025132;28;20062;-81
2022/07/22 00:54:55;;;;;;;10.10;2.92;;;16.00;99.90;;;;;;5025220;28;20034;-82
2022/07/22 00:57:21;;;;;;;12.57;2.90;;;16.00;99.90;;;;;;5027760;28;20065;-79
2022/07/22 00:59:47;;;;;;;11.20;3.08;;;16.00;99.90;;;;;;5026165;28;20117;-80
2022/07/22 01:02:13;;;;;;;11.68;2.80;;;16.00;99.90;;;;;;4991672;28;20048;-79
2022/07/22 01:04:39;;;;;;;11.13;2.45;;;16.00;99.90;;;;;;5016610;28;20711;-79
2022/07/22 01:07:05;;;;;;;11.73;2.67;;;15.90;99.90;;;;;;5007895;28;20030;-80
2022/07/22 01:09:31;;;;;;;11.27;2.78;;;15.90;99.90;;;;;;5027125;28;20033;-80
2022/07/22 01:11:57;;;;;;;9.45;2.70;;;15.90;99.90;;;;;;5030312;28;20085;-79
2022/07/22 01:14:23;;;;;;;11.48;2.60;;;15.90;99.90;;;;;;5021848;28;20049;-80
2022/07/22 01:16:49;;;;;;;7.88;2.30;;;15.90;99.90;;;;;;5012450;28;20120;-78
2022/07/22 01:19:14;;;;;;;8.15;2.33;;;15.80;99.90;;;;;;5008907;28;20040;-79
2022/07/22 01:21:40;;;;;;;12.05;2.88;;;15.80;99.90;;;;;;5026964;28;20172;-80
2022/07/22 01:24:06;;;;;;;9.55;2.55;;;15.80;99.90;;;;;;5010948;28;20033;-81
2022/07/22 01:26:33;;;;;;;12.23;2.50;;;15.80;99.90;;;;;;4990955;28;20104;-80
2022/07/22 01:28:59;;;;;;;9.80;2.55;;;15.80;99.90;;;;;;4991239;28;20064;-80
2022/07/22 01:31:25;;;;;;;12.15;3.25;;;15.80;99.90;;;;;;5023208;28;20030;-79
2022/07/22 01:33:51;;;;;;;8.95;2.47;;;15.80;99.90;;;;;;4993878;28;20103;-80
2022/07/22 01:36:17;;;;;;;12.52;2.60;;;15.80;99.90;;;;;;4991812;28;20025;-78
2022/07/22 01:38:43;;;;;;;11.95;2.90;;;15.80;99.90;;;;;;5024337;28;20339;-80
2022/07/22 01:41:09;;;;;;;12.02;2.60;;;15.80;99.90;;;;;;5029705;28;20343;-79
2022/07/22 01:43:35;;;;;;;11.35;2.85;;;15.80;99.90;;;;;;4997672;28;20045;-80
2022/07/22 01:46:01;;;;;;;11.07;2.53;;;15.80;99.90;;;;;;5011734;28;20025;-80
2022/07/22 01:48:26;;;;;;;12.35;2.58;;;15.80;99.90;;;;;;4995804;28;20088;-80
2022/07/22 01:50:52;;;;;;;9.70;2.40;;;15.80;99.90;;;;;;5010768;28;20105;-79
2022/07/22 01:53:18;;;;;;;8.07;2.17;;;15.80;99.90;;;;;;5013261;28;20161;-82
2022/07/22 01:55:44;;;;;;;8.15;2.20;;;15.80;99.90;;;;;;5011374;28;20207;-79
2022/07/22 01:58:10;;;;;;;8.80;1.98;;;15.80;99.90;;;;;;5008103;28;20034;-79
2022/07/22 02:00:37;;;;;;;10.05;2.53;;;15.90;99.90;;;;;;5022681;28;20073;-79
2022/07/22 02:03:04;;;;;;;9.70;2.47;;;15.90;99.90;;;;;;5018553;28;20558;-78
2022/07/22 02:05:29;;;;;;;7.90;2.05;;;15.80;99.90;;;;;;5004824;28;20042;-79
2022/07/22 02:08:03;;;;;;;10.15;2.22;;;15.80;99.90;;;;;;4991907;28;20018;-80
2022/07/22 02:10:29;;;;;;;10.35;2.67;;;15.80;99.90;;;;;;5009576;28;20070;-81
2022/07/22 02:12:56;;;;;;;11.15;2.53;;;15.80;99.90;;;;;;5005831;28;20335;-81
2022/07/22 02:15:22;;;;;;;8.32;2.40;;;15.80;99.90;;;;;;5015596;28;20053;-80
2022/07/22 02:17:48;;;;;;;11.10;2.58;;;15.80;99.90;;;;;;5004530;28;20029;-80
2022/07/22 02:20:14;;;;;;;9.82;2.58;;;15.80;99.90;;;;;;5026121;28;20036;-79
2022/07/22 02:22:40;;;;;;;9.32;2.58;;;15.80;99.90;;;;;;5025326;28;20036;-80
2022/07/22 02:25:06;;;;;;;8.93;2.42;;;15.80;99.90;;;;;;4991380;28;20041;-79
2022/07/22 02:27:32;;;;;;;9.57;2.42;;;15.80;99.90;;;;;;5006855;28;20092;-79
2022/07/22 02:29:58;;;;;;;7.57;2.08;;;15.80;99.90;;;;;;5026027;28;20272;-80
2022/07/22 02:32:24;;;;;;;9.73;2.45;;;15.80;99.90;;;;;;5027358;28;20041;-79
2022/07/22 02:34:49;;;;;;;8.13;2.22;;;15.80;99.90;;;;;;5003454;28;20212;-79
2022/07/22 02:37:15;;;;;;;10.57;3.05;;;15.80;99.90;;;;;;4995796;28;20276;-80
2022/07/22 02:39:41;;;;;;;10.43;2.70;;;15.80;99.90;;;;;;5023594;28;20057;-80
2022/07/22 02:42:07;;;;;;;8.82;2.10;;;15.80;99.90;;;;;;5021637;28;20121;-79
2022/07/22 02:44:33;;;;;;;9.77;2.30;;;15.80;99.90;;;;;;5004828;28;20059;-82
2022/07/22 02:46:58;;;;;;;8.73;2.33;;;15.80;99.90;;;;;;5026796;28;20029;-78
2022/07/22 02:49:24;;;;;;;9.10;2.30;;;15.80;99.90;;;;;;5030221;28;20034;-79
2022/07/22 02:51:50;;;;;;;9.23;2.28;;;15.80;99.90;;;;;;5012106;28;20022;-80
2022/07/22 02:54:16;;;;;;;9.13;2.20;;;15.80;99.90;;;;;;5018817;28;20363;-79
2022/07/22 02:56:41;;;;;;;9.15;2.00;;;15.80;99.90;;;;;;5030338;28;20056;-79
2022/07/22 02:59:07;;;;;;;12.35;2.88;;;15.70;99.90;;;;;;5021154;28;20026;-79
2022/07/22 03:01:33;;;;;;;13.00;2.85;;;15.80;99.90;;;;;;5028369;28;20278;-80
2022/07/22 03:03:59;;;;;;;12.43;2.85;;;15.80;99.90;;;;;;5021531;28;20072;-77
2022/07/22 03:06:25;;;;;;;9.10;2.35;;;15.80;99.90;;;;;;4992547;28;20283;-79
2022/07/22 03:08:51;;;;;;;9.30;2.30;;;15.80;99.90;;;;;;5027789;28;20260;-80
2022/07/22 03:11:17;;;;;;;9.18;2.22;;;15.80;99.90;;;;;;4992630;28;20088;-80
2022/07/22 03:13:43;;;;;;;8.75;2.50;;;15.80;99.90;;;;;;4989881;28;20039;-79
2022/07/22 03:16:08;;;;;;;9.07;2.30;;;15.80;99.90;;;;;;5020984;28;20050;-78
2022/07/22 03:18:35;;;;;;;9.63;2.20;;;15.80;99.90;;;;;;5011053;28;20036;-79
2022/07/22 03:21:01;;;;;;;10.45;2.55;;;15.80;99.90;;;;;;4998838;28;20026;-79
2022/07/22 03:23:27;;;;;;;10.88;2.25;;;15.80;99.90;;;;;;5026782;28;20044;-80
2022/07/22 03:25:52;;;;;;;8.07;2.55;;;15.80;99.90;;;;;;5027363;28;20223;-79
2022/07/22 03:28:18;;;;;;;8.40;2.17;;;15.80;99.90;;;;;;5009067;28;20036;-79
2022/07/22 03:30:44;;;;;;;11.38;2.10;;;15.80;99.90;;;;;;5009439;28;20017;-79
2022/07/22 03:33:09;;;;;;;10.57;2.60;;;15.80;99.90;;;;;;4996392;28;20280;-79
2022/07/22 03:35:35;;;;;;;10.95;2.78;;;15.80;99.90;;;;;;5007710;28;20029;-80
2022/07/22 03:38:02;;;;;;;10.00;2.35;;;15.80;99.90;;;;;;5007227;28;20128;-78
2022/07/22 03:40:27;;;;;;;9.88;2.38;;;15.80;99.90;;;;;;4997791;28;20044;-79
2022/07/22 03:42:53;;;;;;;12.23;2.30;;;15.80;99.90;;;;;;5027941;28;20105;-79
2022/07/22 03:45:19;;;;;;;11.05;2.50;;;15.80;99.90;;;;;;4993768;28;20075;-79
2022/07/22 03:47:45;;;;;;;9.68;2.15;;;15.80;99.90;;;;;;5028085;28;20194;-80
2022/07/22 03:50:10;;;;;;;9.88;2.20;;;15.80;99.90;;;;;;5013628;28;20191;-80
2022/07/22 03:52:37;;;;;;;13.73;2.47;;;15.80;99.90;;;;;;5009460;28;20145;-78
2022/07/22 03:55:04;;;;;;;9.98;2.15;;;15.80;99.90;;;;;;4997662;28;20052;-79
2022/07/22 03:57:29;;;;;;;9.45;2.38;;;15.80;99.90;;;;;;5008583;28;20049;-80
2022/07/22 03:59:55;;;;;;;7.32;2.00;;;15.80;99.90;;;;;;5001491;28;20026;-80
2022/07/22 04:02:21;;;;;;;9.57;2.40;;;15.80;99.90;;;;;;4996982;28;20061;-80
2022/07/22 04:04:47;;;;;;;12.38;2.50;;;15.80;99.90;;;;;;5008492;28;20061;-79
2022/07/22 04:07:12;;;;;;;13.23;2.22;;;15.80;99.90;;;;;;5017063;28;20018;-80
2022/07/22 04:09:38;;;;;;;7.90;2.30;;;15.80;99.90;;;;;;5011375;28;20207;-80
2022/07/22 04:12:04;;;;;;;9.18;2.10;;;15.70;99.90;;;;;;5017829;28;20029;-79
2022/07/22 04:14:30;;;;;;;8.40;2.63;;;15.70;99.90;;;;;;5029050;28;20024;-79
2022/07/22 04:16:56;;;;;;;9.20;2.28;;;15.70;99.90;;;;;;5016011;28;20092;-80
2022/07/22 04:19:22;;;;;;;10.23;2.70;;;15.80;99.90;;;;;;4999126;28;20070;-78
2022/07/22 04:21:48;;;;;;;11.18;2.33;;;15.80;99.90;;;;;;4998012;28;20327;-79
2022/07/22 04:24:13;;;;;;;10.70;2.45;;;15.70;99.90;;;;;;5030971;28;20040;-78
2022/07/22 04:26:39;;;;;;;11.57;2.03;;;15.70;99.90;;;;;;5013004;28;20057;-80
2022/07/22 04:29:06;;;;;;;10.57;2.25;;;15.70;99.90;;;;;;5013980;28;20056;-81
2022/07/22 04:31:32;;;;;;;6.63;2.03;;;15.70;99.90;;;;;;5030580;28;20075;-80
2022/07/22 04:33:58;;;;;;;8.40;1.98;;;15.70;99.90;;;;;;4997067;28;20041;-80
2022/07/22 04:36:24;;;;;;;7.55;1.90;;;15.70;99.90;;;;;;5024747;28;20097;-79
2022/07/22 04:38:50;;;;;;;8.98;2.00;;;15.70;99.90;;;;;;5005651;28;20289;-79
2022/07/22 04:41:17;;;;;;;8.43;1.95;;;15.80;99.90;;;;;;5009961;28;20055;-79
2022/07/22 04:43:42;;;;;;;9.73;2.53;;;15.80;99.90;;;;;;5019723;28;20033;-80
2022/07/22 04:46:11;;;;;;;8.82;2.33;;;15.70;99.90;;;;;;5019202;28;20197;-78
2022/07/22 04:48:37;;;;;;;8.30;1.95;;;15.70;99.90;;;;;;5017923;28;20252;-79
2022/07/22 04:51:03;;;;;;;7.97;2.00;;;15.80;99.90;;;;;;5022867;28;20030;-80
2022/07/22 04:53:29;;;;;;;9.63;2.35;;;15.70;99.90;;;;;;5027521;28;20034;-78
2022/07/22 04:55:54;;;;;;;7.35;1.92;;;15.10;99.90;;;;;;4987997;28;20264;-79
2022/07/22 04:58:20;;;;;;;8.23;2.05;;;15.80;99.90;;;;;;5027491;28;20095;-79
2022/07/22 05:00:47;;;;;;;11.43;2.17;;;15.80;99.90;;;;;;5008575;28;20064;-79
2022/07/22 05:03:13;;;;;;;10.38;2.72;;;15.80;99.90;;;;;;5027286;28;20084;-78
2022/07/22 05:05:39;;;;;;;10.88;2.25;;;15.80;99.90;;;;;;5017474;28;20025;-79
2022/07/22 05:08:06;;;;;;;11.75;2.30;;;15.80;99.90;;;;;;5009601;28;20243;-79
2022/07/22 05:10:32;;;;;;;7.15;2.03;;;15.80;99.90;;;;;;5031875;28;20048;-80
2022/07/22 05:12:58;;;;;;;6.30;1.83;;;15.80;99.90;;;;;;5025091;28;20057;-78
2022/07/22 05:15:24;;;;;;;8.77;2.15;;;15.80;99.90;;;;;;5011197;28;20175;-80
2022/07/22 05:17:50;;;;;;;9.55;2.20;;;15.80;99.90;;;;;;5012965;28;20355;-78
2022/07/22 05:20:16;;;;;;;6.75;1.80;;;15.80;99.90;;;;;;5016313;28;20369;-79
2022/07/22 05:22:42;;;;;;;7.93;1.90;;;15.80;99.90;;;;;;5015479;28;20319;-77
2022/07/22 05:25:08;;;;;;;7.85;1.90;;;15.80;99.90;;;;;;4994656;28;20054;-78
2022/07/22 05:27:34;;;;;;;9.10;1.92;;;15.80;99.90;;;;;;4994826;28;20053;-79
2022/07/22 05:29:59;;;;;;;8.00;1.90;;;15.80;99.90;;;;;;5028446;28;20029;-80
2022/07/22 05:32:25;;;;;;;10.13;2.20;;;15.90;99.90;;;;;;5010539;28;20076;-78
2022/07/22 05:34:51;;;;;;;10.25;2.15;;;15.90;99.90;;;;;;5013919;28;20072;-78
2022/07/22 05:37:17;;;;;;;6.40;1.80;;;15.90;99.90;;;;;;4994824;28;20022;-78
2022/07/22 05:39:45;;;;;;;9.85;2.50;;;15.90;99.90;;;;;;5009192;28;20092;-78
2022/07/22 05:42:11;;;;;;;10.68;2.40;;;15.90;99.90;;;;;;5012488;28;20067;-78
2022/07/22 05:44:37;;;;;;;7.88;2.30;;;15.90;99.90;;;;;;5005715;28;20280;-79
2022/07/22 05:47:03;;;;;;;7.97;1.98;;;15.90;99.90;;;;;;5000348;28;20105;-79
2022/07/22 05:49:29;;;;;;;8.43;2.20;;;15.90;99.90;;;;;;5020394;28;20331;-79
2022/07/22 05:51:59;;;;;;;10.80;2.05;;;16.00;99.90;;;;;;4989438;28;20172;-79
2022/07/22 05:54:26;;;;;;;7.85;2.17;;;16.00;99.90;;;;;;5006729;28;20123;-78
2022/07/22 05:56:51;;;;;;;8.65;1.70;;;15.90;99.90;;;;;;5005817;28;20094;-78
2022/07/22 05:59:17;;;;;;;8.43;1.98;;;16.00;99.90;;;;;;4987791;28;20034;-79
2022/07/22 06:01:43;;;;;;;7.93;2.10;;;16.00;99.90;;;;;;5002624;28;20300;-78
2022/07/22 06:04:09;;;;;;;5.95;1.88;;;16.00;99.90;;;;;;5018390;28;20049;-80
2022/07/22 06:06:34;;;;;;;6.50;1.90;;;15.40;99.90;;;;;;5020133;28;20025;-79
2022/07/22 06:09:00;;;;;;;9.18;2.15;;;16.10;99.90;;;;;;5004766;28;20050;-78
2022/07/22 06:11:29;;;;;;;9.15;1.88;;;16.10;99.90;;;;;;5001498;28;20309;-79
2022/07/22 06:13:54;;;;;;;8.77;1.95;;;16.30;99.90;;;;;;5031746;28;20033;-80
2022/07/22 06:16:20;;;;;;;7.07;2.08;;;16.10;99.90;;;;;;5004163;28;20041;-77
2022/07/22 06:18:46;;;;;;;11.07;1.92;;;16.20;99.90;;;;;;5004340;28;20299;-79
2022/07/22 06:21:11;;;;;;;6.63;2.00;;;16.20;99.90;;;;;;4985241;28;20280;-78
2022/07/22 06:23:37;;;;;;;6.45;1.80;;;16.20;99.90;;;;;;5016603;28;20038;-79
2022/07/22 06:26:03;;;;;;;6.80;1.60;;;16.20;99.90;;;;;;5003175;28;20091;-79
2022/07/22 06:28:29;;;;;;;6.93;1.80;;;16.30;99.90;;;;;;4988968;28;20053;-79
2022/07/22 06:30:55;;;;;;;9.90;2.17;;;17.30;99.90;;;;;;5018966;28;20284;-78
2022/07/22 06:33:20;;;;;;;8.82;2.00;;;16.30;99.90;;;;;;5020138;28;20057;-79
2022/07/22 06:35:46;;;;;;;9.43;2.00;;;16.40;99.90;;;;;;4988680;28;20030;-79
2022/07/22 06:38:12;;;;;;;7.85;1.90;;;16.30;99.90;;;;;;5004627;28;20060;-79
2022/07/22 06:40:38;;;;;;;9.38;2.00;;;16.40;99.90;;;;;;4988305;28;20164;-79
2022/07/22 06:43:04;;;;;;;10.05;2.20;;;16.40;99.90;;;;;;5019812;28;20033;-81
2022/07/22 06:45:30;;;;;;;7.45;2.00;;;16.40;99.90;;;;;;4986892;28;20184;-80
2022/07/22 06:47:57;;;;;;;12.02;2.00;;;16.50;99.90;;;;;;5020963;28;20085;-81
2022/07/22 06:50:23;;;;;;;8.30;1.73;;;16.50;99.90;;;;;;5021310;28;20296;-80
2022/07/22 06:52:49;;;;;;;6.45;1.80;;;16.60;99.90;;;;;;5018041;28;20033;-79
2022/07/22 06:55:15;;;;;;;8.38;2.00;;;16.60;99.90;;;;;;5020268;28;20088;-79
2022/07/22 06:57:41;;;;;;;7.35;1.90;;;16.70;99.90;;;;;;5003987;28;20073;-79
2022/07/22 07:00:08;;;;;;;7.95;1.80;;;16.70;99.90;;;;;;5003517;28;20053;-79
2022/07/22 07:02:35;;;;;;;9.55;2.28;;;17.70;99.90;;;;;;5011198;28;20042;-80
2022/07/22 07:05:01;;;;;;;8.55;1.80;;;16.90;99.90;;;;;;5003773;28;20367;-79
2022/07/22 07:07:26;;;;;;;7.45;1.67;;;16.90;99.90;;;;;;5004333;28;20300;-78
2022/07/22 07:09:52;;;;;;;9.40;2.17;;;16.90;99.90;;;;;;4988382;28;20041;-79
2022/07/22 07:12:18;;;;;;;5.88;1.85;;;17.00;99.90;;;;;;4987306;28;20041;-79
2022/07/22 07:14:44;;;;;;;7.43;1.80;;;17.10;99.90;;;;;;5017549;28;20050;-79
2022/07/22 07:17:10;;;;;;;7.70;1.92;;;17.20;99.90;;;;;;5019048;28;20034;-79
2022/07/22 07:19:36;;;;;;;8.82;2.00;;;17.20;99.90;;;;;;4988235;28;20036;-78
2022/07/22 07:22:01;;;;;;;5.15;1.60;;;17.30;99.90;;;;;;4987203;28;20196;-78
2022/07/22 07:24:27;;;;;;;8.07;1.80;;;17.30;99.90;;;;;;4986278;28;20057;-80
2022/07/22 07:26:53;;;;;;;6.40;2.05;;;17.30;99.90;;;;;;4999616;28;20021;-78
2022/07/22 07:29:19;;;;;;;7.68;1.80;;;17.40;99.90;;;;;;5001570;28;20284;-80
2022/07/22 07:31:45;;;;;;;7.45;1.85;;;17.40;99.90;;;;;;5018148;28;20328;-78
2022/07/22 07:34:10;;;;;;;6.75;1.70;;;17.30;99.90;;;;;;5001031;28;20057;-79
2022/07/22 07:36:36;;;;;;;4.95;1.60;;;17.40;99.90;;;;;;4999927;28;20034;-77
2022/07/22 07:39:02;;;;;;;6.70;1.80;;;17.50;99.90;;;;;;5018329;28;20189;-78
2022/07/22 07:41:28;;;;;;;8.35;1.70;;;17.50;99.90;;;;;;5018929;28;20038;-78
2022/07/22 07:43:53;;;;;;;8.23;1.60;;;17.50;99.90;;;;;;5004188;28;20184;-77
2022/07/22 07:46:19;;;;;;;6.70;1.70;;;17.60;99.90;;;;;;4987673;28;20037;-79
2022/07/22 07:48:46;;;;;;;4.97;1.73;;;17.60;99.90;;;;;;5003906;28;20101;-78
2022/07/22 07:51:12;;;;;;;5.28;1.50;;;17.70;99.90;;;;;;5019415;28;20030;-80
2022/07/22 07:53:38;;;;;;;5.90;1.50;;;17.70;99.90;;;;;;5003567;28;20060;-81
2022/07/22 07:56:04;;;;;;;5.32;1.50;;;17.70;99.90;;;;;;4988274;28;20049;-78
2022/07/22 07:58:30;;;;;;;5.82;1.58;;;17.70;99.90;;;;;;4984835;28;20033;-79
2022/07/22 08:00:56;;;;;;;5.72;1.65;;;17.60;99.90;;;;;;5012337;28;20109;-80
2022/07/22 08:03:22;;;;;;;8.05;1.77;;;17.60;99.90;;;;;;5019742;28;20033;-79
2022/07/22 08:05:47;;;;;;;6.72;1.45;;;17.60;99.90;;;;;;5002769;28;20038;-81
2022/07/22 08:08:13;;;;;;;5.60;1.42;;;17.60;99.90;;;;;;5004724;28;20041;-79
2022/07/22 08:10:39;;;;;;;5.72;1.50;;;17.70;99.90;;;;;;5016871;28;20286;-80
2022/07/22 08:13:05;;;;;;;4.90;1.50;;;17.70;99.90;;;;;;4989808;28;20041;-79
2022/07/22 08:15:32;;;;;;;8.63;1.92;;;17.80;99.90;;;;;;5007917;28;20205;-79
2022/07/22 08:17:58;;;;;;;5.93;1.45;;;17.90;99.90;;;;;;5022995;28;20102;-80
2022/07/22 08:20:25;;;;;;;4.78;1.50;;;17.90;99.90;;;;;;5020574;28;20196;-82
2022/07/22 08:22:51;;;;;;;6.13;1.50;;;17.90;99.90;;;;;;5004533;28;20383;-79
2022/07/22 08:25:17;;;;;;;6.55;1.30;;;17.50;99.90;;;;;;5039284;28;20084;-80
2022/07/22 08:27:43;;;;;;;8.52;1.73;;;17.90;99.90;;;;;;5004596;28;20085;-79
2022/07/22 08:30:09;;;;;;;5.60;1.67;;;17.90;99.90;;;;;;5005705;28;20030;-80
2022/07/22 08:32:35;;;;;;;5.72;1.60;;;17.60;99.90;;;;;;5005240;28;20331;-80
2022/07/22 08:35:01;;;;;;;6.80;1.80;;;17.90;99.90;;;;;;5007248;28;20292;-80
2022/07/22 08:37:27;;;;;;;7.03;1.75;;;17.90;99.90;;;;;;4991014;28;20029;-79
2022/07/22 08:39:53;;;;;;;7.88;1.80;;;17.80;99.90;;;;;;5006275;28;20050;-79
2022/07/22 08:42:21;;;;;;;7.50;1.75;;;17.70;99.90;;;;;;4989010;28;20272;-79
2022/07/22 08:44:47;;;;;;;6.57;1.70;;;17.70;99.90;;;;;;5022703;28;20038;-80
2022/07/22 08:47:13;;;;;;;5.10;1.45;;;17.80;99.90;;;;;;5006282;28;20299;-79
2022/07/22 08:49:39;;;;;;;7.50;2.03;;;17.70;99.90;;;;;;5007218;28;20034;-79
2022/07/22 08:52:05;;;;;;;7.00;1.67;;;17.70;99.90;;;;;;4990599;28;20034;-79
2022/07/22 08:54:31;;;;;;;7.55;1.75;;;17.70;99.90;;;;;;4989820;28;20034;-78
2022/07/22 08:56:56;;;;;;;10.98;2.10;;;17.60;99.90;;;;;;4989904;28;20037;-79
2022/07/22 08:59:22;;;;;;;10.75;1.85;;;17.50;99.90;;;;;;5006051;28;20040;-79
2022/07/22 09:02:09;;;;;;;8.35;1.92;;;17.50;99.90;;;;;;5023385;28;20081;-79
2022/07/22 09:04:50;;;;;;;7.25;1.80;;;17.50;99.90;;;;;;5006094;28;20033;-80
2022/07/22 09:07:24;;;;;;;7.07;1.70;;;18.50;99.90;;;;;;5004333;28;20096;-79
2022/07/22 09:09:50;;;;;;;10.15;2.45;;;17.40;99.90;;;;;;5004196;28;20293;-79
2022/07/22 09:12:16;;;;;;;6.07;1.70;;;17.40;99.90;;;;;;5005997;28;20029;-80
2022/07/22 09:14:50;;;;;;;7.63;1.75;;;17.50;99.90;;;;;;4986629;28;20105;-80
2022/07/22 09:17:30;;;;;;;7.50;1.70;;;17.50;99.90;;;;;;5005576;28;20099;-79
2022/07/22 09:19:58;;;;;;;9.52;1.80;;;17.60;99.90;;;;;;5022271;28;20132;-79
2022/07/22 09:22:46;;;;;;;5.55;1.50;;;17.60;99.90;;;;;;4989500;28;20233;-80
2022/07/22 09:25:19;;;;;;;7.13;1.80;;;17.70;99.90;;;;;;5003991;28;20188;-79
2022/07/22 09:27:46;;;;;;;7.28;2.03;;;17.70;99.90;;;;;;5020907;28;20025;-79
2022/07/22 09:30:14;;;;;;;6.97;1.80;;;17.70;99.90;;;;;;5006234;28;20315;-79
2022/07/22 09:32:41;;;;;;;10.38;1.80;;;17.80;99.90;;;;;;5005118;28;20034;-80
2022/07/22 09:35:08;;;;;;;7.82;1.75;;;17.80;99.90;;;;;;5017687;28;20033;-79
2022/07/22 09:37:34;;;;;;;7.90;1.98;;;17.80;99.90;;;;;;5020983;28;20076;-78
2022/07/22 09:40:14;;;;;;;9.60;1.88;;;17.80;99.90;;;;;;5022095;28;20099;-77
2022/07/22 09:42:50;;;;;;;9.48;2.00;;;17.90;99.90;;;;;;5020023;28;20299;-79
2022/07/22 09:45:17;;;;;;;5.68;1.52;;;17.90;99.90;;;;;;5005898;28;20326;-80
2022/07/22 09:47:44;;;;;;;6.53;1.60;;;17.90;99.90;;;;;;5005008;28;20040;-79
2022/07/22 09:50:24;;;;;;;6.63;1.65;;;18.00;99.90;;;;;;5005709;28;20030;-78
2022/07/22 09:52:53;;;;;;;8.95;2.08;;;18.00;99.90;;;;;;5005739;28;20093;-79
2022/07/22 09:55:21;;;;;;;8.15;1.90;;;18.00;99.90;;;;;;5022042;28;20026;-79
2022/07/22 09:57:48;;;;;;;8.50;1.70;;;18.00;99.90;;;;;;5003248;28;20088;-79
2022/07/22 10:00:17;;;;;;;7.28;1.77;;;18.00;99.90;;;;;;5004913;28;20038;-79
2022/07/22 10:02:47;;;;;;;10.05;1.77;;;17.90;99.90;;;;;;5019113;28;20197;-77
2022/07/22 10:05:15;;;;;;;5.63;1.48;;;17.90;99.90;;;;;;5002846;28;20025;-79
2022/07/22 10:07:42;;;;;;;4.88;1.60;;;17.90;99.90;;;;;;5004446;28;20128;-79
2022/07/22 10:10:10;;;;;;;7.13;1.60;;;17.90;99.90;;;;;;5005549;28;20053;-79
2022/07/22 10:12:38;;;;;;;7.20;1.45;;;17.90;99.90;;;;;;5005659;28;20264;-79
2022/07/22 10:15:05;;;;;;;7.00;1.80;;;18.00;99.90;;;;;;5021822;28;20251;-79
2022/07/22 10:17:32;;;;;;;6.05;1.88;;;18.00;99.90;;;;;;5004118;28;20057;-79
2022/07/22 10:19:58;;;;;;;6.03;1.50;;;18.00;99.90;;;;;;5021488;28;20046;-79
2022/07/22 10:22:39;;;;;;;9.77;1.88;;;18.00;99.90;;;;;;4988678;28;20049;-78
2022/07/22 10:25:06;;;;;;;5.90;1.60;;;18.10;99.90;;;;;;5021744;28;20104;-77
2022/07/22 10:27:53;;;;;;;4.57;1.30;;;18.20;99.90;;;;;;5021636;28;20081;-78
2022/07/22 10:30:51;;;;;;;5.72;1.60;;;18.20;99.90;;;;;;5004279;28;20069;-79
2022/07/22 10:33:21;;;;;;;3.95;1.40;;;18.40;99.90;;;;;;4999311;28;20038;-79
2022/07/22 10:36:02;;;;;;;6.40;1.52;;;18.50;99.90;;;;;;5005146;28;20257;-78
2022/07/22 10:38:29;;;;;;;5.10;1.38;;;18.60;99.90;;;;;;5020909;28;20045;-80
2022/07/22 10:41:04;;;;;;;6.63;1.70;;;18.70;99.90;;;;;;5003945;28;20251;-78
2022/07/22 10:43:31;;;;;;;6.38;1.55;;;18.70;99.90;;;;;;5001445;28;20245;-79
2022/07/22 10:45:59;;;;;;;7.28;1.80;;;18.60;99.90;;;;;;5018602;28;20261;-80
2022/07/22 10:48:45;;;;;;;6.43;1.63;;;18.70;99.90;;;;;;5004597;28;20034;-81
2022/07/22 10:51:16;;;;;;;5.32;1.70;;;18.70;99.90;;;;;;5018726;28;20061;-79
2022/07/22 10:53:45;;;;;;;6.95;1.80;;;18.80;99.90;;;;;;5020191;28;20088;-81
2022/07/22 10:56:17;;;;;;;7.40;1.80;;;18.80;99.90;;;;;;5003597;28;20030;-80
2022/07/22 10:58:48;;;;;;;6.68;1.95;;;18.90;99.90;;;;;;5004549;28;20260;-80
2022/07/22 11:01:18;;;;;;;11.63;2.25;;;19.00;99.90;;;;;;5020040;28;20074;-80
2022/07/22 11:03:46;;;;;;;4.28;1.50;;;19.10;99.90;;;;;;5001554;28;20252;-79
2022/07/22 11:06:14;;;;;;;5.85;1.55;;;19.20;99.90;;;;;;5019237;28;20299;-80
2022/07/22 11:08:42;;;;;;;4.88;1.50;;;19.40;99.90;;;;;;5015455;28;20079;-79
2022/07/22 11:11:07;;;;;;;6.43;1.75;;;19.50;99.90;;;;;;5019100;28;20049;-80
2022/07/22 11:13:39;;;;;;;6.43;1.70;;;19.70;99.90;;;;;;5017816;28;20297;-81
2022/07/22 11:16:17;;;;;;;5.60;1.67;;;19.60;99.90;;;;;;5021049;28;20053;-80
2022/07/22 11:18:58;;;;;;;7.10;2.13;;;19.60;99.90;;;;;;5028584;28;20080;-80
2022/07/22 11:21:27;;;;;;;2.83;1.33;;;19.80;99.90;;;;;;5014868;28;20334;-80
2022/07/22 11:23:55;;;;;;;4.20;1.40;;;19.60;99.90;;;;;;5024427;28;20080;-80
2022/07/22 11:26:44;;;;;;;7.68;1.73;;;19.40;99.90;;;;;;5020097;28;20061;-79
2022/07/22 11:29:26;;;;;;;6.93;1.50;;;19.40;99.90;;;;;;5012181;28;20037;-80
2022/07/22 11:31:52;;;;;;;4.40;1.50;;;19.40;99.90;;;;;;5007661;28;20109;-80
2022/07/22 11:34:20;;;;;;;4.45;1.50;;;19.40;99.90;;;;;;5003373;28;20038;-79
2022/07/22 11:36:46;;;;;;;5.22;1.50;;;19.50;99.90;;;;;;5004996;28;20149;-79
2022/07/22 11:39:15;;;;;;;4.63;1.30;;;19.40;99.90;;;;;;5012153;28;20132;-79
2022/07/22 11:41:41;;;;;;;3.10;1.10;;;19.40;99.90;;;;;;5024830;28;20040;-79
2022/07/22 11:44:07;;;;;;;4.75;1.35;;;19.30;99.90;;;;;;5013215;28;20045;-79
2022/07/22 11:46:41;;;;;;;3.63;1.23;;;19.30;99.90;;;;;;5019785;28;20068;-78
2022/07/22 11:49:08;;;;;;;3.53;1.08;;;19.20;99.90;;;;;;5034622;28;20043;-80
2022/07/22 11:51:37;;;;;;;5.13;1.38;;;19.20;99.90;;;;;;5005664;28;20076;-80
2022/07/22 11:54:04;;;;;;;4.55;1.30;;;19.10;99.90;;;;;;5007422;28;20038;-79
2022/07/22 11:56:30;;;;;;;3.65;1.30;;;19.00;99.90;;;;;;5007056;28;20108;-79
2022/07/22 11:58:56;;;;;;;5.05;1.40;;;18.90;99.90;;;;;;5007332;28;20342;-80
2022/07/22 12:01:28;;;;;;;3.75;1.30;;;18.80;99.90;;;;;;5020211;28;20038;-78
2022/07/22 12:04:06;;;;;;;4.50;1.15;;;18.80;99.90;;;;;;5010373;28;20049;-79
2022/07/22 12:06:38;;;;;;;4.38;1.20;;;18.80;99.90;;;;;;5010209;28;20033;-79
2022/07/22 12:09:08;;;;;;;3.33;1.02;;;18.70;99.90;;;;;;5008040;28;20073;-80
2022/07/22 12:11:37;;;;;;;3.47;1.17;;;18.80;99.90;;;;;;5010768;28;20088;-80
2022/07/22 12:14:11;;;;;;;2.92;1.20;;;18.70;99.90;;;;;;5008684;28;20318;-79
2022/07/22 12:16:37;;;;;;;4.72;1.20;;;18.70;99.90;;;;;;5030036;28;20029;-79
2022/07/22 12:19:05;;;;;;;3.70;1.27;;;18.70;99.90;;;;;;4995458;28;20041;-79
2022/07/22 12:21:33;;;;;;;3.70;1.20;;;18.80;99.90;;;;;;5023696;28;20041;-82
2022/07/22 12:24:09;;;;;;;5.45;1.77;;;18.80;99.90;;;;;;5022365;28;20061;-79
2022/07/22 12:26:44;;;;;;;2.90;1.00;;;18.80;99.90;;;;;;5035444;28;20045;-79
2022/07/22 12:29:37;;;;;;;6.22;1.60;;;18.90;99.90;;;;;;5021463;28;20061;-78
2022/07/22 12:32:05;;;;;;;;;;;19.00;99.90;;;;;;5003419;28;20146;-77
2022/07/22 12:34:30;;;;;;;4.00;1.20;;;18.90;99.90;;;;;;5023654;28;19913;-78
2022/07/22 12:36:56;;;;;;;8.30;1.50;;;19.00;99.90;;;;;;5004089;28;20285;-79
2022/07/22 12:39:23;;;;;;;4.32;1.67;;;19.00;99.90;;;;;;4992256;28;20088;-79
2022/07/22 12:41:53;;;;;;;3.95;1.20;;;19.10;99.90;;;;;;5020998;28;20105;-79
2022/07/22 12:44:22;;;;;;;4.78;1.17;;;19.30;99.90;;;;;;5009873;28;20025;-79
2022/07/22 12:46:53;;;;;;;4.90;1.38;;;19.40;99.90;;;;;;5022316;28;20075;-79